Rio Rico, Texas
Current Conditions -  °F | °C
As of 10:55 AM on Thursday 23 Oct 2014 (Local Time) from KT65 Reporting Station
Scattered Clouds Scattered Clouds  
Wind Chill: 77°   Ceiling: Unl
Heat Index: 79°   Visibility: 7mi
Dew Point: 66°   Wind: 7mph
Humidity: 69%   Direction: 10°N
Pressure: 30.1"   Gusts: NA
Location:  26.1456°N, 97.91°W
Report Text: KT65 231555Z AUTO 01006KT 7SM SCT120 25/19 A3010 RMK AO2 T02520191
Loading
Personal Weather Stations






























Interactive Weather Map
Tropical Storm Tracking
New forecast layout! Learn more

10-Day Weather Forecast

Advertisements
Track Severe Weather on mobile